sensor_id;sensor_type;location;lat;lon;timestamp;P1;durP1;ratioP1;P2;durP2;ratioP2
41233;SDS011;26968;42.686;23.352;2024-01-15T00:02:15;177.70;;;67.65;;
41233;SDS011;26968;42.686;23.352;2024-01-15T00:04:41;175.73;;;68.13;;
41233;SDS011;26968;42.686;23.352;2024-01-15T00:07:07;187.27;;;70.88;;
41233;SDS011;26968;42.686;23.352;2024-01-15T00:09:33;200.20;;;68.43;;
41233;SDS011;26968;42.686;23.352;2024-01-15T00:11:59;197.68;;;70.55;;
41233;SDS011;26968;42.686;23.352;2024-01-15T00:14:25;203.65;;;73.65;;
41233;SDS011;26968;42.686;23.352;2024-01-15T00:16:51;222.40;;;81.38;;
41233;SDS011;26968;42.686;23.352;2024-01-15T00:19:21;211.80;;;78.15;;
41233;SDS011;26968;42.686;23.352;2024-01-15T00:21:47;209.32;;;76.60;;
41233;SDS011;26968;42.686;23.352;2024-01-15T00:24:13;202.70;;;75.32;;
41233;SDS011;26968;42.686;23.352;2024-01-15T00:26:39;215.77;;;75.70;;
41233;SDS011;26968;42.686;23.352;2024-01-15T00:29:06;197.45;;;72.05;;
41233;SDS011;26968;42.686;23.352;2024-01-15T00:31:33;197.52;;;71.60;;
41233;SDS011;26968;42.686;23.352;2024-01-15T00:33:58;197.93;;;71.38;;
41233;SDS011;26968;42.686;23.352;2024-01-15T00:36:24;193.07;;;69.97;;
41233;SDS011;26968;42.686;23.352;2024-01-15T00:38:49;185.95;;;68.40;;
41233;SDS011;26968;42.686;23.352;2024-01-15T00:41:15;193.05;;;71.75;;
41233;SDS011;26968;42.686;23.352;2024-01-15T00:43:40;195.05;;;73.00;;
41233;SDS011;26968;42.686;23.352;2024-01-15T00:46:06;198.77;;;75.78;;
41233;SDS011;26968;42.686;23.352;2024-01-15T00:48:32;199.52;;;72.25;;
41233;SDS011;26968;42.686;23.352;2024-01-15T00:50:58;201.45;;;76.32;;
41233;SDS011;26968;42.686;23.352;2024-01-15T00:53:23;195.77;;;74.47;;
41233;SDS011;26968;42.686;23.352;2024-01-15T00:55:50;196.63;;;69.78;;
41233;SDS011;26968;42.686;23.352;2024-01-15T00:58:16;198.68;;;73.03;;
41233;SDS011;26968;42.686;23.352;2024-01-15T01:00:41;214.45;;;75.15;;
41233;SDS011;26968;42.686;23.352;2024-01-15T01:03:07;197.45;;;74.32;;
41233;SDS011;26968;42.686;23.352;2024-01-15T01:05:34;210.77;;;74.97;;
41233;SDS011;26968;42.686;23.352;2024-01-15T01:08:00;214.52;;;76.75;;
41233;SDS011;26968;42.686;23.352;2024-01-15T01:10:26;212.45;;;78.03;;
41233;SDS011;26968;42.686;23.352;2024-01-15T01:12:52;211.77;;;76.70;;
41233;SDS011;26968;42.686;23.352;2024-01-15T01:15:17;203.88;;;74.68;;
41233;SDS011;26968;42.686;23.352;2024-01-15T01:17:43;209.65;;;76.65;;
41233;SDS011;26968;42.686;23.352;2024-01-15T01:20:09;224.77;;;79.38;;
41233;SDS011;26968;42.686;23.352;2024-01-15T01:22:35;229.15;;;81.20;;
41233;SDS011;26968;42.686;23.352;2024-01-15T01:25:01;215.57;;;84.10;;
41233;SDS011;26968;42.686;23.352;2024-01-15T01:27:27;220.93;;;82.22;;
41233;SDS011;26968;42.686;23.352;2024-01-15T01:29:53;215.32;;;80.63;;
41233;SDS011;26968;42.686;23.352;2024-01-15T01:32:19;231.05;;;86.28;;
41233;SDS011;26968;42.686;23.352;2024-01-15T01:34:45;238.38;;;91.18;;
41233;SDS011;26968;42.686;23.352;2024-01-15T01:37:10;220.43;;;86.55;;
41233;SDS011;26968;42.686;23.352;2024-01-15T01:39:40;215.75;;;84.68;;
41233;SDS011;26968;42.686;23.352;2024-01-15T01:42:06;228.68;;;83.40;;
41233;SDS011;26968;42.686;23.352;2024-01-15T01:44:32;255.32;;;90.15;;
41233;SDS011;26968;42.686;23.352;2024-01-15T01:46:58;221.90;;;83.35;;
41233;SDS011;26968;42.686;23.352;2024-01-15T01:49:25;226.60;;;85.22;;
41233;SDS011;26968;42.686;23.352;2024-01-15T01:51:56;253.20;;;90.53;;
41233;SDS011;26968;42.686;23.352;2024-01-15T01:54:23;243.35;;;90.22;;
41233;SDS011;26968;42.686;23.352;2024-01-15T01:56:50;220.40;;;88.60;;
41233;SDS011;26968;42.686;23.352;2024-01-15T01:59:16;238.13;;;89.88;;
41233;SDS011;26968;42.686;23.352;2024-01-15T02:01:42;228.57;;;87.50;;
41233;SDS011;26968;42.686;23.352;2024-01-15T02:04:10;237.18;;;86.00;;
41233;SDS011;26968;42.686;23.352;2024-01-15T02:06:36;230.38;;;85.57;;
41233;SDS011;26968;42.686;23.352;2024-01-15T02:09:02;238.95;;;85.30;;
41233;SDS011;26968;42.686;23.352;2024-01-15T02:11:28;219.93;;;81.40;;
41233;SDS011;26968;42.686;23.352;2024-01-15T02:13:54;210.43;;;79.35;;
41233;SDS011;26968;42.686;23.352;2024-01-15T02:16:20;208.23;;;77.90;;
41233;SDS011;26968;42.686;23.352;2024-01-15T02:18:46;199.25;;;74.28;;
41233;SDS011;26968;42.686;23.352;2024-01-15T02:21:11;180.20;;;66.63;;
41233;SDS011;26968;42.686;23.352;2024-01-15T02:23:37;161.57;;;65.53;;
41233;SDS011;26968;42.686;23.352;2024-01-15T02:26:04;156.93;;;61.67;;
41233;SDS011;26968;42.686;23.352;2024-01-15T02:28:30;138.35;;;58.15;;
41233;SDS011;26968;42.686;23.352;2024-01-15T02:30:57;157.23;;;58.35;;
41233;SDS011;26968;42.686;23.352;2024-01-15T02:33:23;148.13;;;55.42;;
41233;SDS011;26968;42.686;23.352;2024-01-15T02:35:48;168.68;;;58.58;;
41233;SDS011;26968;42.686;23.352;2024-01-15T02:38:15;157.90;;;58.80;;
41233;SDS011;26968;42.686;23.352;2024-01-15T02:40:42;153.45;;;54.33;;
41233;SDS011;26968;42.686;23.352;2024-01-15T02:43:09;132.80;;;49.78;;
41233;SDS011;26968;42.686;23.352;2024-01-15T02:45:35;143.30;;;48.55;;
41233;SDS011;26968;42.686;23.352;2024-01-15T02:48:00;128.40;;;49.55;;
41233;SDS011;26968;42.686;23.352;2024-01-15T02:50:26;139.20;;;49.13;;
41233;SDS011;26968;42.686;23.352;2024-01-15T02:52:52;161.05;;;54.53;;
41233;SDS011;26968;42.686;23.352;2024-01-15T02:55:17;154.05;;;54.30;;
41233;SDS011;26968;42.686;23.352;2024-01-15T02:57:43;188.10;;;64.70;;
41233;SDS011;26968;42.686;23.352;2024-01-15T03:00:09;148.45;;;53.47;;
41233;SDS011;26968;42.686;23.352;2024-01-15T03:02:36;140.85;;;52.25;;
41233;SDS011;26968;42.686;23.352;2024-01-15T03:05:04;151.95;;;56.08;;
41233;SDS011;26968;42.686;23.352;2024-01-15T03:07:31;146.48;;;49.83;;
41233;SDS011;26968;42.686;23.352;2024-01-15T03:09:57;132.77;;;50.35;;
41233;SDS011;26968;42.686;23.352;2024-01-15T03:12:22;136.05;;;48.70;;
41233;SDS011;26968;42.686;23.352;2024-01-15T03:14:48;131.65;;;49.47;;
41233;SDS011;26968;42.686;23.352;2024-01-15T03:17:13;131.07;;;47.13;;
41233;SDS011;26968;42.686;23.352;2024-01-15T03:19:39;163.52;;;59.25;;
41233;SDS011;26968;42.686;23.352;2024-01-15T03:22:04;164.45;;;61.47;;
41233;SDS011;26968;42.686;23.352;2024-01-15T03:24:32;182.50;;;64.38;;
41233;SDS011;26968;42.686;23.352;2024-01-15T03:26:58;172.15;;;61.33;;
41233;SDS011;26968;42.686;23.352;2024-01-15T03:29:23;168.80;;;61.75;;
41233;SDS011;26968;42.686;23.352;2024-01-15T03:31:51;173.88;;;66.13;;
41233;SDS011;26968;42.686;23.352;2024-01-15T03:34:17;182.32;;;61.45;;
41233;SDS011;26968;42.686;23.352;2024-01-15T03:36:42;152.70;;;55.22;;
41233;SDS011;26968;42.686;23.352;2024-01-15T03:39:08;144.05;;;54.67;;
41233;SDS011;26968;42.686;23.352;2024-01-15T03:41:33;131.73;;;46.38;;
41233;SDS011;26968;42.686;23.352;2024-01-15T03:43:59;118.53;;;41.58;;
41233;SDS011;26968;42.686;23.352;2024-01-15T03:46:24;99.35;;;37.90;;
41233;SDS011;26968;42.686;23.352;2024-01-15T03:48:50;95.43;;;35.67;;
41233;SDS011;26968;42.686;23.352;2024-01-15T03:51:18;76.18;;;30.05;;
41233;SDS011;26968;42.686;23.352;2024-01-15T03:53:45;90.70;;;33.80;;
41233;SDS011;26968;42.686;23.352;2024-01-15T03:56:10;88.60;;;32.47;;
41233;SDS011;26968;42.686;23.352;2024-01-15T03:58:36;92.18;;;34.25;;
41233;SDS011;26968;42.686;23.352;2024-01-15T04:01:02;108.75;;;40.38;;
41233;SDS011;26968;42.686;23.352;2024-01-15T04:03:27;131.82;;;44.65;;
41233;SDS011;26968;42.686;23.352;2024-01-15T04:05:53;134.82;;;48.78;;
41233;SDS011;26968;42.686;23.352;2024-01-15T04:08:18;130.38;;;45.38;;
41233;SDS011;26968;42.686;23.352;2024-01-15T04:10:44;107.13;;;40.67;;
41233;SDS011;26968;42.686;23.352;2024-01-15T04:13:09;115.35;;;40.28;;
41233;SDS011;26968;42.686;23.352;2024-01-15T04:15:35;117.35;;;43.38;;
41233;SDS011;26968;42.686;23.352;2024-01-15T04:18:02;112.05;;;41.20;;
41233;SDS011;26968;42.686;23.352;2024-01-15T04:20:28;104.97;;;38.63;;
41233;SDS011;26968;42.686;23.352;2024-01-15T04:22:53;96.50;;;33.72;;
41233;SDS011;26968;42.686;23.352;2024-01-15T04:25:19;93.35;;;34.15;;
41233;SDS011;26968;42.686;23.352;2024-01-15T04:27:44;101.80;;;38.03;;
41233;SDS011;26968;42.686;23.352;2024-01-15T04:30:10;95.93;;;36.72;;
41233;SDS011;26968;42.686;23.352;2024-01-15T04:32:36;104.35;;;39.00;;
41233;SDS011;26968;42.686;23.352;2024-01-15T04:35:01;106.85;;;39.22;;
41233;SDS011;26968;42.686;23.352;2024-01-15T04:37:27;110.82;;;40.83;;
41233;SDS011;26968;42.686;23.352;2024-01-15T04:39:52;116.32;;;41.20;;
41233;SDS011;26968;42.686;23.352;2024-01-15T04:42:20;108.78;;;38.33;;
41233;SDS011;26968;42.686;23.352;2024-01-15T04:44:46;104.07;;;38.85;;
41233;SDS011;26968;42.686;23.352;2024-01-15T04:47:12;105.13;;;39.92;;
41233;SDS011;26968;42.686;23.352;2024-01-15T04:49:38;108.38;;;39.28;;
41233;SDS011;26968;42.686;23.352;2024-01-15T04:52:03;119.50;;;40.53;;
41233;SDS011;26968;42.686;23.352;2024-01-15T04:54:29;102.30;;;40.20;;
41233;SDS011;26968;42.686;23.352;2024-01-15T04:56:54;112.88;;;41.28;;
41233;SDS011;26968;42.686;23.352;2024-01-15T04:59:20;117.70;;;42.40;;
41233;SDS011;26968;42.686;23.352;2024-01-15T05:01:46;113.32;;;40.67;;
41233;SDS011;26968;42.686;23.352;2024-01-15T05:04:12;126.32;;;40.55;;
41233;SDS011;26968;42.686;23.352;2024-01-15T05:06:37;96.53;;;38.53;;
41233;SDS011;26968;42.686;23.352;2024-01-15T05:09:03;116.15;;;41.50;;
41233;SDS011;26968;42.686;23.352;2024-01-15T05:11:29;111.90;;;40.72;;
41233;SDS011;26968;42.686;23.352;2024-01-15T05:13:55;109.72;;;43.55;;
41233;SDS011;26968;42.686;23.352;2024-01-15T05:16:20;111.07;;;42.60;;
41233;SDS011;26968;42.686;23.352;2024-01-15T05:18:46;114.53;;;41.90;;
41233;SDS011;26968;42.686;23.352;2024-01-15T05:21:12;101.50;;;39.58;;
41233;SDS011;26968;42.686;23.352;2024-01-15T05:23:37;117.50;;;42.50;;
41233;SDS011;26968;42.686;23.352;2024-01-15T05:26:03;104.95;;;40.58;;
41233;SDS011;26968;42.686;23.352;2024-01-15T05:28:29;90.07;;;38.42;;
41233;SDS011;26968;42.686;23.352;2024-01-15T05:30:55;92.68;;;38.50;;
41233;SDS011;26968;42.686;23.352;2024-01-15T05:33:24;100.53;;;37.15;;
41233;SDS011;26968;42.686;23.352;2024-01-15T05:35:49;90.47;;;36.53;;
41233;SDS011;26968;42.686;23.352;2024-01-15T05:38:15;110.78;;;36.67;;
41233;SDS011;26968;42.686;23.352;2024-01-15T05:40:41;83.85;;;34.90;;
41233;SDS011;26968;42.686;23.352;2024-01-15T05:43:07;101.43;;;34.28;;
41233;SDS011;26968;42.686;23.352;2024-01-15T05:45:33;92.22;;;35.28;;
41233;SDS011;26968;42.686;23.352;2024-01-15T05:48:00;90.38;;;32.90;;
41233;SDS011;26968;42.686;23.352;2024-01-15T05:50:26;94.07;;;35.53;;
41233;SDS011;26968;42.686;23.352;2024-01-15T05:52:52;95.55;;;35.40;;
41233;SDS011;26968;42.686;23.352;2024-01-15T05:55:17;93.60;;;36.28;;
41233;SDS011;26968;42.686;23.352;2024-01-15T05:57:44;89.45;;;35.92;;
41233;SDS011;26968;42.686;23.352;2024-01-15T06:00:10;96.88;;;37.58;;
41233;SDS011;26968;42.686;23.352;2024-01-15T06:02:39;104.85;;;37.05;;
41233;SDS011;26968;42.686;23.352;2024-01-15T06:05:05;94.10;;;35.70;;
41233;SDS011;26968;42.686;23.352;2024-01-15T06:07:34;100.43;;;37.55;;
41233;SDS011;26968;42.686;23.352;2024-01-15T06:10:00;101.40;;;38.50;;
41233;SDS011;26968;42.686;23.352;2024-01-15T06:12:30;73.80;;;29.27;;
41233;SDS011;26968;42.686;23.352;2024-01-15T06:15:00;110.57;;;40.80;;
41233;SDS011;26968;42.686;23.352;2024-01-15T06:17:26;113.72;;;39.55;;
41233;SDS011;26968;42.686;23.352;2024-01-15T06:19:51;103.57;;;38.80;;
41233;SDS011;26968;42.686;23.352;2024-01-15T06:22:17;107.43;;;39.13;;
41233;SDS011;26968;42.686;23.352;2024-01-15T06:24:45;107.93;;;42.50;;
41233;SDS011;26968;42.686;23.352;2024-01-15T06:27:11;114.85;;;42.80;;
41233;SDS011;26968;42.686;23.352;2024-01-15T06:29:37;110.45;;;41.30;;
41233;SDS011;26968;42.686;23.352;2024-01-15T06:32:04;100.40;;;40.90;;
41233;SDS011;26968;42.686;23.352;2024-01-15T06:34:30;108.47;;;41.00;;
41233;SDS011;26968;42.686;23.352;2024-01-15T06:36:55;107.32;;;40.65;;
41233;SDS011;26968;42.686;23.352;2024-01-15T06:39:21;114.63;;;42.58;;
41233;SDS011;26968;42.686;23.352;2024-01-15T06:41:46;115.80;;;42.83;;
41233;SDS011;26968;42.686;23.352;2024-01-15T06:44:12;104.70;;;42.03;;
41233;SDS011;26968;42.686;23.352;2024-01-15T06:46:44;110.63;;;42.33;;
41233;SDS011;26968;42.686;23.352;2024-01-15T06:49:11;115.32;;;42.63;;
41233;SDS011;26968;42.686;23.352;2024-01-15T06:51:37;110.65;;;44.83;;
41233;SDS011;26968;42.686;23.352;2024-01-15T06:54:03;115.80;;;47.58;;
41233;SDS011;26968;42.686;23.352;2024-01-15T06:56:28;125.00;;;48.78;;
41233;SDS011;26968;42.686;23.352;2024-01-15T06:58:54;115.35;;;45.60;;
41233;SDS011;26968;42.686;23.352;2024-01-15T07:01:19;116.25;;;46.65;;
41233;SDS011;26968;42.686;23.352;2024-01-15T07:03:45;130.98;;;48.35;;
41233;SDS011;26968;42.686;23.352;2024-01-15T07:06:11;119.50;;;47.60;;
41233;SDS011;26968;42.686;23.352;2024-01-15T07:08:39;130.40;;;47.90;;
41233;SDS011;26968;42.686;23.352;2024-01-15T07:11:08;121.75;;;48.10;;
41233;SDS011;26968;42.686;23.352;2024-01-15T07:13:35;125.72;;;47.97;;
41233;SDS011;26968;42.686;23.352;2024-01-15T07:16:02;129.27;;;48.20;;
41233;SDS011;26968;42.686;23.352;2024-01-15T07:18:28;117.82;;;49.15;;
41233;SDS011;26968;42.686;23.352;2024-01-15T07:20:59;135.98;;;51.67;;
41233;SDS011;26968;42.686;23.352;2024-01-15T07:23:26;127.82;;;50.03;;
41233;SDS011;26968;42.686;23.352;2024-01-15T07:25:52;155.70;;;58.30;;
41233;SDS011;26968;42.686;23.352;2024-01-15T07:28:19;163.10;;;57.92;;
41233;SDS011;26968;42.686;23.352;2024-01-15T07:30:44;142.13;;;56.92;;
41233;SDS011;26968;42.686;23.352;2024-01-15T07:33:10;143.20;;;59.95;;
41233;SDS011;26968;42.686;23.352;2024-01-15T07:35:36;148.35;;;59.60;;
41233;SDS011;26968;42.686;23.352;2024-01-15T07:38:01;152.85;;;57.85;;
41233;SDS011;26968;42.686;23.352;2024-01-15T07:40:27;149.50;;;57.80;;
41233;SDS011;26968;42.686;23.352;2024-01-15T07:42:53;146.45;;;55.92;;
41233;SDS011;26968;42.686;23.352;2024-01-15T07:45:18;152.55;;;55.47;;
41233;SDS011;26968;42.686;23.352;2024-01-15T07:47:44;131.20;;;54.35;;
41233;SDS011;26968;42.686;23.352;2024-01-15T07:50:10;142.68;;;56.67;;
41233;SDS011;26968;42.686;23.352;2024-01-15T07:52:35;126.93;;;49.53;;
41233;SDS011;26968;42.686;23.352;2024-01-15T07:55:01;134.45;;;50.97;;
41233;SDS011;26968;42.686;23.352;2024-01-15T07:57:28;142.10;;;57.30;;
41233;SDS011;26968;42.686;23.352;2024-01-15T07:59:55;158.20;;;64.03;;
41233;SDS011;26968;42.686;23.352;2024-01-15T08:02:20;171.05;;;64.53;;
41233;SDS011;26968;42.686;23.352;2024-01-15T08:04:46;159.23;;;64.03;;
41233;SDS011;26968;42.686;23.352;2024-01-15T08:07:12;147.52;;;57.85;;
41233;SDS011;26968;42.686;23.352;2024-01-15T08:09:38;138.27;;;60.67;;
41233;SDS011;26968;42.686;23.352;2024-01-15T08:12:04;175.05;;;73.40;;
41233;SDS011;26968;42.686;23.352;2024-01-15T08:14:31;177.40;;;73.32;;
41233;SDS011;26968;42.686;23.352;2024-01-15T08:16:57;204.43;;;80.63;;
41233;SDS011;26968;42.686;23.352;2024-01-15T08:19:23;217.88;;;87.93;;
41233;SDS011;26968;42.686;23.352;2024-01-15T08:21:48;222.70;;;86.65;;
41233;SDS011;26968;42.686;23.352;2024-01-15T08:24:14;252.60;;;95.15;;
41233;SDS011;26968;42.686;23.352;2024-01-15T08:26:40;272.85;;;103.78;;
41233;SDS011;26968;42.686;23.352;2024-01-15T08:29:05;258.67;;;103.00;;
41233;SDS011;26968;42.686;23.352;2024-01-15T08:31:31;223.85;;;92.70;;
41233;SDS011;26968;42.686;23.352;2024-01-15T08:33:56;228.68;;;87.57;;
41233;SDS011;26968;42.686;23.352;2024-01-15T08:36:22;230.77;;;88.78;;
41233;SDS011;26968;42.686;23.352;2024-01-15T08:38:49;207.70;;;84.85;;
41233;SDS011;26968;42.686;23.352;2024-01-15T08:41:15;212.90;;;85.22;;
41233;SDS011;26968;42.686;23.352;2024-01-15T08:43:40;188.13;;;77.70;;
41233;SDS011;26968;42.686;23.352;2024-01-15T08:46:06;219.85;;;90.15;;
41233;SDS011;26968;42.686;23.352;2024-01-15T08:48:32;249.30;;;97.30;;
41233;SDS011;26968;42.686;23.352;2024-01-15T08:50:57;254.68;;;101.40;;
41233;SDS011;26968;42.686;23.352;2024-01-15T08:53:23;248.30;;;99.63;;
41233;SDS011;26968;42.686;23.352;2024-01-15T08:55:49;248.07;;;100.55;;
41233;SDS011;26968;42.686;23.352;2024-01-15T08:58:15;225.50;;;94.25;;
41233;SDS011;26968;42.686;23.352;2024-01-15T09:00:41;227.90;;;91.70;;
41233;SDS011;26968;42.686;23.352;2024-01-15T09:03:07;191.60;;;83.10;;
41233;SDS011;26968;42.686;23.352;2024-01-15T09:05:36;219.82;;;85.22;;
41233;SDS011;26968;42.686;23.352;2024-01-15T09:08:01;200.55;;;82.40;;
41233;SDS011;26968;42.686;23.352;2024-01-15T09:10:27;187.20;;;79.85;;
41233;SDS011;26968;42.686;23.352;2024-01-15T09:12:52;180.55;;;71.78;;
41233;SDS011;26968;42.686;23.352;2024-01-15T09:15:18;185.52;;;74.47;;
41233;SDS011;26968;42.686;23.352;2024-01-15T09:17:45;178.57;;;73.00;;
41233;SDS011;26968;42.686;23.352;2024-01-15T09:20:11;167.55;;;73.15;;
41233;SDS011;26968;42.686;23.352;2024-01-15T09:22:39;161.98;;;71.20;;
41233;SDS011;26968;42.686;23.352;2024-01-15T09:25:08;149.75;;;55.20;;
41233;SDS011;26968;42.686;23.352;2024-01-15T09:27:36;101.82;;;43.35;;
41233;SDS011;26968;42.686;23.352;2024-01-15T09:30:03;120.47;;;47.65;;
41233;SDS011;26968;42.686;23.352;2024-01-15T09:32:30;126.30;;;47.58;;
41233;SDS011;26968;42.686;23.352;2024-01-15T09:34:55;118.40;;;46.85;;
41233;SDS011;26968;42.686;23.352;2024-01-15T09:37:21;115.72;;;46.47;;
41233;SDS011;26968;42.686;23.352;2024-01-15T09:39:47;115.75;;;44.13;;
41233;SDS011;26968;42.686;23.352;2024-01-15T09:42:14;114.35;;;45.75;;
41233;SDS011;26968;42.686;23.352;2024-01-15T09:44:40;115.75;;;46.90;;
41233;SDS011;26968;42.686;23.352;2024-01-15T09:47:06;132.77;;;49.60;;
41233;SDS011;26968;42.686;23.352;2024-01-15T09:49:32;134.75;;;51.97;;
41233;SDS011;26968;42.686;23.352;2024-01-15T09:51:58;161.10;;;54.35;;
41233;SDS011;26968;42.686;23.352;2024-01-15T09:54:26;132.60;;;53.83;;
41233;SDS011;26968;42.686;23.352;2024-01-15T09:56:52;132.23;;;51.95;;
41233;SDS011;26968;42.686;23.352;2024-01-15T09:59:19;129.13;;;51.60;;
41233;SDS011;26968;42.686;23.352;2024-01-15T10:01:47;144.43;;;50.90;;
41233;SDS011;26968;42.686;23.352;2024-01-15T10:04:15;129.35;;;48.83;;
41233;SDS011;26968;42.686;23.352;2024-01-15T10:06:44;122.50;;;46.78;;
41233;SDS011;26968;42.686;23.352;2024-01-15T10:09:14;118.20;;;50.50;;
41233;SDS011;26968;42.686;23.352;2024-01-15T10:11:41;129.00;;;53.40;;
41233;SDS011;26968;42.686;23.352;2024-01-15T10:14:07;122.57;;;51.65;;
41233;SDS011;26968;42.686;23.352;2024-01-15T10:16:40;145.50;;;53.17;;
41233;SDS011;26968;42.686;23.352;2024-01-15T10:19:05;127.70;;;52.03;;
41233;SDS011;26968;42.686;23.352;2024-01-15T10:21:34;133.02;;;51.53;;
41233;SDS011;26968;42.686;23.352;2024-01-15T10:24:01;123.75;;;50.35;;
41233;SDS011;26968;42.686;23.352;2024-01-15T10:26:27;120.13;;;47.05;;
41233;SDS011;26968;42.686;23.352;2024-01-15T10:28:53;126.53;;;48.85;;
41233;SDS011;26968;42.686;23.352;2024-01-15T10:31:19;131.00;;;52.63;;
41233;SDS011;26968;42.686;23.352;2024-01-15T10:33:51;142.07;;;52.72;;
41233;SDS011;26968;42.686;23.352;2024-01-15T10:36:17;131.65;;;51.92;;
41233;SDS011;26968;42.686;23.352;2024-01-15T10:38:53;105.30;;;46.15;;
41233;SDS011;26968;42.686;23.352;2024-01-15T10:41:23;125.93;;;46.58;;
41233;SDS011;26968;42.686;23.352;2024-01-15T10:43:48;135.93;;;50.33;;
41233;SDS011;26968;42.686;23.352;2024-01-15T10:46:14;137.55;;;48.97;;
41233;SDS011;26968;42.686;23.352;2024-01-15T10:48:40;142.45;;;57.17;;
41233;SDS011;26968;42.686;23.352;2024-01-15T10:51:06;149.88;;;56.42;;
41233;SDS011;26968;42.686;23.352;2024-01-15T10:53:37;137.77;;;55.70;;
41233;SDS011;26968;42.686;23.352;2024-01-15T10:56:05;138.05;;;51.83;;
41233;SDS011;26968;42.686;23.352;2024-01-15T10:58:31;126.68;;;52.90;;
41233;SDS011;26968;42.686;23.352;2024-01-15T11:00:59;107.22;;;46.15;;
41233;SDS011;26968;42.686;23.352;2024-01-15T11:03:24;114.95;;;44.03;;
41233;SDS011;26968;42.686;23.352;2024-01-15T11:05:50;101.93;;;42.25;;
41233;SDS011;26968;42.686;23.352;2024-01-15T11:08:16;113.80;;;44.42;;
41233;SDS011;26968;42.686;23.352;2024-01-15T11:10:44;117.43;;;42.70;;
41233;SDS011;26968;42.686;23.352;2024-01-15T11:16:07;66.03;;;26.23;;
41233;SDS011;26968;42.686;23.352;2024-01-15T11:21:25;75.03;;;34.53;;
41233;SDS011;26968;42.686;23.352;2024-01-15T11:26:44;87.63;;;34.75;;
41233;SDS011;26968;42.686;23.352;2024-01-15T11:34:20;72.57;;;31.85;;
41233;SDS011;26968;42.686;23.352;2024-01-15T11:37:06;72.53;;;30.23;;
41233;SDS011;26968;42.686;23.352;2024-01-15T11:42:01;65.80;;;28.83;;
41233;SDS011;26968;42.686;23.352;2024-01-15T11:44:28;69.55;;;28.75;;
41233;SDS011;26968;42.686;23.352;2024-01-15T11:46:59;68.63;;;25.17;;
41233;SDS011;26968;42.686;23.352;2024-01-15T11:52:21;61.45;;;27.35;;
41233;SDS011;26968;42.686;23.352;2024-01-15T11:55:10;62.58;;;25.73;;
41233;SDS011;26968;42.686;23.352;2024-01-15T11:57:47;66.10;;;27.42;;
41233;SDS011;26968;42.686;23.352;2024-01-15T12:00:15;72.45;;;26.95;;
41233;SDS011;26968;42.686;23.352;2024-01-15T12:02:45;76.63;;;28.48;;
41233;SDS011;26968;42.686;23.352;2024-01-15T12:05:12;91.97;;;27.73;;
41233;SDS011;26968;42.686;23.352;2024-01-15T12:07:42;77.40;;;29.38;;
41233;SDS011;26968;42.686;23.352;2024-01-15T12:10:11;74.80;;;26.65;;
41233;SDS011;26968;42.686;23.352;2024-01-15T12:15:22;71.53;;;26.80;;
41233;SDS011;26968;42.686;23.352;2024-01-15T12:17:49;75.72;;;29.33;;
41233;SDS011;26968;42.686;23.352;2024-01-15T12:20:15;75.53;;;26.98;;
41233;SDS011;26968;42.686;23.352;2024-01-15T12:22:42;76.72;;;30.23;;
41233;SDS011;26968;42.686;23.352;2024-01-15T12:25:08;63.72;;;27.23;;
41233;SDS011;26968;42.686;23.352;2024-01-15T12:27:34;65.85;;;26.20;;
41233;SDS011;26968;42.686;23.352;2024-01-15T12:30:00;69.22;;;25.80;;
41233;SDS011;26968;42.686;23.352;2024-01-15T12:32:25;72.45;;;30.02;;
41233;SDS011;26968;42.686;23.352;2024-01-15T12:34:51;78.55;;;28.55;;
41233;SDS011;26968;42.686;23.352;2024-01-15T12:37:20;79.95;;;30.67;;
41233;SDS011;26968;42.686;23.352;2024-01-15T12:39:46;65.10;;;29.13;;
41233;SDS011;26968;42.686;23.352;2024-01-15T12:42:16;76.53;;;29.30;;
41233;SDS011;26968;42.686;23.352;2024-01-15T12:44:42;78.93;;;29.85;;
41233;SDS011;26968;42.686;23.352;2024-01-15T12:47:09;73.72;;;29.02;;
41233;SDS011;26968;42.686;23.352;2024-01-15T12:49:38;93.28;;;31.60;;
41233;SDS011;26968;42.686;23.352;2024-01-15T12:52:10;80.18;;;29.92;;
41233;SDS011;26968;42.686;23.352;2024-01-15T12:54:35;66.63;;;28.60;;
41233;SDS011;26968;42.686;23.352;2024-01-15T12:57:01;74.82;;;29.73;;
41233;SDS011;26968;42.686;23.352;2024-01-15T12:59:27;75.28;;;29.08;;
41233;SDS011;26968;42.686;23.352;2024-01-15T13:01:53;76.65;;;28.83;;
41233;SDS011;26968;42.686;23.352;2024-01-15T13:04:23;81.15;;;28.40;;
41233;SDS011;26968;42.686;23.352;2024-01-15T13:06:52;81.00;;;30.05;;
41233;SDS011;26968;42.686;23.352;2024-01-15T13:09:18;74.93;;;29.20;;
41233;SDS011;26968;42.686;23.352;2024-01-15T13:11:47;84.40;;;29.48;;
41233;SDS011;26968;42.686;23.352;2024-01-15T13:14:13;66.70;;;26.73;;
41233;SDS011;26968;42.686;23.352;2024-01-15T13:16:39;79.75;;;29.20;;
41233;SDS011;26968;42.686;23.352;2024-01-15T13:19:08;76.70;;;29.83;;
41233;SDS011;26968;42.686;23.352;2024-01-15T13:21:45;71.75;;;29.35;;
41233;SDS011;26968;42.686;23.352;2024-01-15T13:24:11;65.65;;;26.95;;
41233;SDS011;26968;42.686;23.352;2024-01-15T13:26:37;63.58;;;26.90;;
41233;SDS011;26968;42.686;23.352;2024-01-15T13:29:03;73.57;;;26.85;;
41233;SDS011;26968;42.686;23.352;2024-01-15T13:31:29;71.07;;;28.13;;
41233;SDS011;26968;42.686;23.352;2024-01-15T13:33:55;62.10;;;26.65;;
41233;SDS011;26968;42.686;23.352;2024-01-15T13:36:21;69.70;;;27.42;;
41233;SDS011;26968;42.686;23.352;2024-01-15T13:38:49;83.20;;;28.63;;
41233;SDS011;26968;42.686;23.352;2024-01-15T13:41:16;67.68;;;29.13;;
41233;SDS011;26968;42.686;23.352;2024-01-15T13:43:44;68.35;;;26.83;;
41233;SDS011;26968;42.686;23.352;2024-01-15T13:46:18;73.85;;;30.80;;
41233;SDS011;26968;42.686;23.352;2024-01-15T13:48:48;75.95;;;30.55;;
41233;SDS011;26968;42.686;23.352;2024-01-15T13:51:14;88.38;;;33.47;;
41233;SDS011;26968;42.686;23.352;2024-01-15T13:53:39;78.03;;;31.30;;
41233;SDS011;26968;42.686;23.352;2024-01-15T13:56:05;71.80;;;28.45;;
41233;SDS011;26968;42.686;23.352;2024-01-15T13:58:32;71.45;;;29.80;;
41233;SDS011;26968;42.686;23.352;2024-01-15T14:00:58;84.18;;;30.70;;
41233;SDS011;26968;42.686;23.352;2024-01-15T14:03:24;62.83;;;28.63;;
41233;SDS011;26968;42.686;23.352;2024-01-15T14:05:52;75.25;;;27.30;;
41233;SDS011;26968;42.686;23.352;2024-01-15T14:08:17;72.07;;;29.58;;
41233;SDS011;26968;42.686;23.352;2024-01-15T14:10:43;83.53;;;31.85;;
41233;SDS011;26968;42.686;23.352;2024-01-15T14:13:09;75.32;;;29.70;;
41233;SDS011;26968;42.686;23.352;2024-01-15T14:15:34;67.85;;;27.90;;
41233;SDS011;26968;42.686;23.352;2024-01-15T14:18:00;64.63;;;27.77;;